sensor_id;sensor_type;location;lat;lon;timestamp;P1;durP1;ratioP1;P2;durP2;ratioP2
31872;SDS011;22407;42.820;23.374;2023-10-19T00:00:39;20.88;;;10.57;;
31872;SDS011;22407;42.820;23.374;2023-10-19T00:03:09;20.73;;;11.20;;
31872;SDS011;22407;42.820;23.374;2023-10-19T00:05:38;21.83;;;11.30;;
31872;SDS011;22407;42.820;23.374;2023-10-19T00:08:04;20.53;;;10.53;;
31872;SDS011;22407;42.820;23.374;2023-10-19T00:10:52;21.00;;;10.45;;
31872;SDS011;22407;42.820;23.374;2023-10-19T00:13:36;19.02;;;9.57;;
31872;SDS011;22407;42.820;23.374;2023-10-19T00:16:05;17.00;;;8.48;;
31872;SDS011;22407;42.820;23.374;2023-10-19T00:18:58;17.13;;;9.30;;
31872;SDS011;22407;42.820;23.374;2023-10-19T00:21:25;15.83;;;8.47;;
31872;SDS011;22407;42.820;23.374;2023-10-19T00:23:55;15.18;;;8.13;;
31872;SDS011;22407;42.820;23.374;2023-10-19T00:26:25;17.25;;;8.55;;
31872;SDS011;22407;42.820;23.374;2023-10-19T00:28:52;15.77;;;8.38;;
31872;SDS011;22407;42.820;23.374;2023-10-19T00:31:19;15.10;;;8.55;;
31872;SDS011;22407;42.820;23.374;2023-10-19T00:33:48;16.70;;;9.27;;
31872;SDS011;22407;42.820;23.374;2023-10-19T00:36:17;15.82;;;8.27;;
31872;SDS011;22407;42.820;23.374;2023-10-19T00:38:45;16.58;;;8.68;;
31872;SDS011;22407;42.820;23.374;2023-10-19T00:41:15;15.93;;;7.93;;
31872;SDS011;22407;42.820;23.374;2023-10-19T00:43:58;15.07;;;7.63;;
31872;SDS011;22407;42.820;23.374;2023-10-19T00:46:30;14.03;;;7.40;;
31872;SDS011;22407;42.820;23.374;2023-10-19T00:49:08;13.50;;;6.95;;
31872;SDS011;22407;42.820;23.374;2023-10-19T00:51:40;15.43;;;7.32;;
31872;SDS011;22407;42.820;23.374;2023-10-19T00:54:14;14.40;;;7.32;;
31872;SDS011;22407;42.820;23.374;2023-10-19T00:56:51;13.25;;;6.82;;
31872;SDS011;22407;42.820;23.374;2023-10-19T00:59:18;17.40;;;8.10;;
31872;SDS011;22407;42.820;23.374;2023-10-19T01:01:55;21.98;;;11.35;;
31872;SDS011;22407;42.820;23.374;2023-10-19T01:04:42;25.92;;;13.65;;
31872;SDS011;22407;42.820;23.374;2023-10-19T01:07:15;16.35;;;8.85;;
31872;SDS011;22407;42.820;23.374;2023-10-19T01:09:47;12.98;;;6.88;;
31872;SDS011;22407;42.820;23.374;2023-10-19T01:12:13;13.80;;;6.60;;
31872;SDS011;22407;42.820;23.374;2023-10-19T01:17:53;13.13;;;6.55;;
31872;SDS011;22407;42.820;23.374;2023-10-19T01:20:26;12.60;;;6.30;;
31872;SDS011;22407;42.820;23.374;2023-10-19T01:23:00;12.95;;;6.35;;
31872;SDS011;22407;42.820;23.374;2023-10-19T01:25:54;12.47;;;6.73;;
31872;SDS011;22407;42.820;23.374;2023-10-19T01:28:34;13.60;;;6.60;;
31872;SDS011;22407;42.820;23.374;2023-10-19T01:31:08;11.70;;;6.53;;
31872;SDS011;22407;42.820;23.374;2023-10-19T01:33:39;13.82;;;6.78;;
31872;SDS011;22407;42.820;23.374;2023-10-19T01:36:07;12.38;;;6.57;;
31872;SDS011;22407;42.820;23.374;2023-10-19T01:38:36;13.10;;;6.37;;
31872;SDS011;22407;42.820;23.374;2023-10-19T01:41:02;14.35;;;7.00;;
31872;SDS011;22407;42.820;23.374;2023-10-19T01:43:38;14.02;;;7.28;;
31872;SDS011;22407;42.820;23.374;2023-10-19T01:46:05;13.68;;;7.45;;
31872;SDS011;22407;42.820;23.374;2023-10-19T01:48:38;13.17;;;6.63;;
31872;SDS011;22407;42.820;23.374;2023-10-19T01:51:06;13.88;;;6.97;;
31872;SDS011;22407;42.820;23.374;2023-10-19T01:53:36;14.85;;;6.60;;
31872;SDS011;22407;42.820;23.374;2023-10-19T01:56:08;13.63;;;6.63;;
31872;SDS011;22407;42.820;23.374;2023-10-19T01:58:35;15.20;;;7.30;;
31872;SDS011;22407;42.820;23.374;2023-10-19T02:01:08;13.60;;;7.50;;
31872;SDS011;22407;42.820;23.374;2023-10-19T02:03:37;13.95;;;6.78;;
31872;SDS011;22407;42.820;23.374;2023-10-19T02:06:07;14.07;;;6.88;;
31872;SDS011;22407;42.820;23.374;2023-10-19T02:08:44;14.88;;;7.53;;
31872;SDS011;22407;42.820;23.374;2023-10-19T02:11:15;14.18;;;7.13;;
31872;SDS011;22407;42.820;23.374;2023-10-19T02:13:46;15.10;;;7.73;;
31872;SDS011;22407;42.820;23.374;2023-10-19T02:16:13;14.18;;;7.15;;
31872;SDS011;22407;42.820;23.374;2023-10-19T02:18:42;12.95;;;7.00;;
31872;SDS011;22407;42.820;23.374;2023-10-19T02:21:08;14.68;;;7.18;;
31872;SDS011;22407;42.820;23.374;2023-10-19T02:23:37;15.00;;;7.60;;
31872;SDS011;22407;42.820;23.374;2023-10-19T02:26:08;15.83;;;8.07;;
31872;SDS011;22407;42.820;23.374;2023-10-19T02:28:37;17.85;;;8.50;;
31872;SDS011;22407;42.820;23.374;2023-10-19T02:31:03;14.73;;;7.10;;
31872;SDS011;22407;42.820;23.374;2023-10-19T02:33:50;14.35;;;7.40;;
31872;SDS011;22407;42.820;23.374;2023-10-19T02:36:26;14.70;;;7.15;;
31872;SDS011;22407;42.820;23.374;2023-10-19T02:41:25;15.52;;;8.02;;
31872;SDS011;22407;42.820;23.374;2023-10-19T02:43:55;17.05;;;8.07;;
31872;SDS011;22407;42.820;23.374;2023-10-19T02:46:31;15.05;;;7.43;;
31872;SDS011;22407;42.820;23.374;2023-10-19T02:49:06;15.68;;;8.15;;
31872;SDS011;22407;42.820;23.374;2023-10-19T02:51:48;17.03;;;7.97;;
31872;SDS011;22407;42.820;23.374;2023-10-19T02:54:16;15.48;;;7.70;;
31872;SDS011;22407;42.820;23.374;2023-10-19T02:56:53;18.98;;;8.43;;
31872;SDS011;22407;42.820;23.374;2023-10-19T02:59:22;15.15;;;7.30;;
31872;SDS011;22407;42.820;23.374;2023-10-19T03:01:51;17.45;;;8.82;;
31872;SDS011;22407;42.820;23.374;2023-10-19T03:04:26;21.50;;;10.03;;
31872;SDS011;22407;42.820;23.374;2023-10-19T03:06:53;23.63;;;10.43;;
31872;SDS011;22407;42.820;23.374;2023-10-19T03:09:21;22.65;;;9.98;;
31872;SDS011;22407;42.820;23.374;2023-10-19T03:11:49;32.72;;;12.55;;
31872;SDS011;22407;42.820;23.374;2023-10-19T03:14:18;23.88;;;11.05;;
31872;SDS011;22407;42.820;23.374;2023-10-19T03:16:44;20.63;;;9.97;;
31872;SDS011;22407;42.820;23.374;2023-10-19T03:19:10;22.55;;;9.57;;
31872;SDS011;22407;42.820;23.374;2023-10-19T03:21:38;21.67;;;9.55;;
31872;SDS011;22407;42.820;23.374;2023-10-19T03:24:14;23.13;;;9.07;;
31872;SDS011;22407;42.820;23.374;2023-10-19T03:27:01;17.67;;;8.60;;
31872;SDS011;22407;42.820;23.374;2023-10-19T03:29:33;24.40;;;9.60;;
31872;SDS011;22407;42.820;23.374;2023-10-19T03:32:03;17.02;;;8.13;;
31872;SDS011;22407;42.820;23.374;2023-10-19T03:34:31;16.17;;;8.48;;
31872;SDS011;22407;42.820;23.374;2023-10-19T03:36:57;15.10;;;7.85;;
31872;SDS011;22407;42.820;23.374;2023-10-19T03:39:30;16.07;;;7.97;;
31872;SDS011;22407;42.820;23.374;2023-10-19T03:41:58;16.15;;;7.68;;
31872;SDS011;22407;42.820;23.374;2023-10-19T03:44:24;14.80;;;7.10;;
31872;SDS011;22407;42.820;23.374;2023-10-19T03:46:52;17.47;;;8.13;;
31872;SDS011;22407;42.820;23.374;2023-10-19T03:49:19;15.38;;;8.00;;
31872;SDS011;22407;42.820;23.374;2023-10-19T03:51:45;21.30;;;10.07;;
31872;SDS011;22407;42.820;23.374;2023-10-19T03:54:27;20.13;;;10.07;;
31872;SDS011;22407;42.820;23.374;2023-10-19T03:56:53;28.77;;;9.55;;
31872;SDS011;22407;42.820;23.374;2023-10-19T03:59:22;26.40;;;11.40;;
31872;SDS011;22407;42.820;23.374;2023-10-19T04:01:48;21.60;;;10.40;;
31872;SDS011;22407;42.820;23.374;2023-10-19T04:04:14;20.27;;;9.83;;
31872;SDS011;22407;42.820;23.374;2023-10-19T04:06:41;21.55;;;10.65;;
31872;SDS011;22407;42.820;23.374;2023-10-19T04:09:14;18.48;;;9.27;;
31872;SDS011;22407;42.820;23.374;2023-10-19T04:11:43;20.23;;;10.50;;
31872;SDS011;22407;42.820;23.374;2023-10-19T04:14:16;24.53;;;12.13;;
31872;SDS011;22407;42.820;23.374;2023-10-19T04:16:42;21.95;;;11.32;;
31872;SDS011;22407;42.820;23.374;2023-10-19T04:19:11;31.95;;;15.95;;
31872;SDS011;22407;42.820;23.374;2023-10-19T04:21:38;26.25;;;12.27;;
31872;SDS011;22407;42.820;23.374;2023-10-19T04:24:08;26.67;;;13.87;;
31872;SDS011;22407;42.820;23.374;2023-10-19T04:26:34;25.92;;;12.25;;
31872;SDS011;22407;42.820;23.374;2023-10-19T04:29:03;29.37;;;12.70;;
31872;SDS011;22407;42.820;23.374;2023-10-19T04:31:36;23.90;;;11.30;;
31872;SDS011;22407;42.820;23.374;2023-10-19T04:34:03;23.48;;;12.25;;
31872;SDS011;22407;42.820;23.374;2023-10-19T04:36:32;23.83;;;11.27;;
31872;SDS011;22407;42.820;23.374;2023-10-19T04:38:59;63.95;;;26.83;;
31872;SDS011;22407;42.820;23.374;2023-10-19T04:41:25;35.63;;;15.43;;
31872;SDS011;22407;42.820;23.374;2023-10-19T04:43:52;22.48;;;11.02;;
31872;SDS011;22407;42.820;23.374;2023-10-19T04:46:19;22.27;;;9.80;;
31872;SDS011;22407;42.820;23.374;2023-10-19T04:48:45;18.80;;;8.97;;
31872;SDS011;22407;42.820;23.374;2023-10-19T04:51:11;26.38;;;10.73;;
31872;SDS011;22407;42.820;23.374;2023-10-19T04:53:36;22.08;;;10.30;;
31872;SDS011;22407;42.820;23.374;2023-10-19T04:56:07;28.37;;;12.13;;
31872;SDS011;22407;42.820;23.374;2023-10-19T04:58:34;22.60;;;9.88;;
31872;SDS011;22407;42.820;23.374;2023-10-19T05:01:00;22.08;;;10.75;;
31872;SDS011;22407;42.820;23.374;2023-10-19T05:03:26;35.05;;;15.52;;
31872;SDS011;22407;42.820;23.374;2023-10-19T05:05:53;32.42;;;15.38;;
31872;SDS011;22407;42.820;23.374;2023-10-19T05:08:19;33.23;;;12.93;;
31872;SDS011;22407;42.820;23.374;2023-10-19T05:10:45;34.08;;;15.13;;
31872;SDS011;22407;42.820;23.374;2023-10-19T05:13:11;36.87;;;16.63;;
31872;SDS011;22407;42.820;23.374;2023-10-19T05:15:37;37.70;;;16.93;;
31872;SDS011;22407;42.820;23.374;2023-10-19T05:18:03;31.35;;;13.77;;
31872;SDS011;22407;42.820;23.374;2023-10-19T05:20:29;30.60;;;14.68;;
31872;SDS011;22407;42.820;23.374;2023-10-19T05:22:55;31.40;;;14.90;;
31872;SDS011;22407;42.820;23.374;2023-10-19T05:25:23;30.93;;;12.57;;
31872;SDS011;22407;42.820;23.374;2023-10-19T05:27:48;29.48;;;13.30;;
31872;SDS011;22407;42.820;23.374;2023-10-19T05:30:14;25.33;;;11.27;;
31872;SDS011;22407;42.820;23.374;2023-10-19T05:32:40;26.57;;;11.30;;
31872;SDS011;22407;42.820;23.374;2023-10-19T05:35:05;26.27;;;13.57;;
31872;SDS011;22407;42.820;23.374;2023-10-19T05:37:31;31.15;;;15.20;;
31872;SDS011;22407;42.820;23.374;2023-10-19T05:39:57;26.33;;;13.17;;
31872;SDS011;22407;42.820;23.374;2023-10-19T05:42:23;24.73;;;12.50;;
31872;SDS011;22407;42.820;23.374;2023-10-19T05:44:50;29.50;;;12.98;;
31872;SDS011;22407;42.820;23.374;2023-10-19T05:47:16;29.60;;;14.95;;
31872;SDS011;22407;42.820;23.374;2023-10-19T05:49:42;30.83;;;13.80;;
31872;SDS011;22407;42.820;23.374;2023-10-19T05:52:08;31.60;;;15.20;;
31872;SDS011;22407;42.820;23.374;2023-10-19T05:54:33;30.15;;;14.30;;
31872;SDS011;22407;42.820;23.374;2023-10-19T05:56:59;29.67;;;13.80;;
31872;SDS011;22407;42.820;23.374;2023-10-19T05:59:24;26.47;;;13.67;;
31872;SDS011;22407;42.820;23.374;2023-10-19T06:01:51;34.57;;;15.73;;
31872;SDS011;22407;42.820;23.374;2023-10-19T06:04:17;32.95;;;17.15;;
31872;SDS011;22407;42.820;23.374;2023-10-19T06:06:43;35.50;;;17.57;;
31872;SDS011;22407;42.820;23.374;2023-10-19T06:09:08;32.05;;;15.98;;
31872;SDS011;22407;42.820;23.374;2023-10-19T06:11:34;33.73;;;15.63;;
31872;SDS011;22407;42.820;23.374;2023-10-19T06:14:03;32.58;;;15.98;;
31872;SDS011;22407;42.820;23.374;2023-10-19T06:16:32;32.85;;;15.90;;
31872;SDS011;22407;42.820;23.374;2023-10-19T06:19:01;34.90;;;16.95;;
31872;SDS011;22407;42.820;23.374;2023-10-19T06:21:27;44.42;;;22.90;;
31872;SDS011;22407;42.820;23.374;2023-10-19T06:23:52;34.63;;;17.10;;
31872;SDS011;22407;42.820;23.374;2023-10-19T06:26:19;34.63;;;17.20;;
31872;SDS011;22407;42.820;23.374;2023-10-19T06:28:45;39.00;;;16.23;;
31872;SDS011;22407;42.820;23.374;2023-10-19T06:31:10;30.27;;;15.47;;
31872;SDS011;22407;42.820;23.374;2023-10-19T06:33:36;35.08;;;16.35;;
31872;SDS011;22407;42.820;23.374;2023-10-19T06:36:06;33.77;;;16.77;;
31872;SDS011;22407;42.820;23.374;2023-10-19T06:38:32;37.17;;;17.08;;
31872;SDS011;22407;42.820;23.374;2023-10-19T06:40:59;34.95;;;17.50;;
31872;SDS011;22407;42.820;23.374;2023-10-19T06:43:24;31.93;;;16.07;;
31872;SDS011;22407;42.820;23.374;2023-10-19T06:45:53;32.47;;;15.95;;
31872;SDS011;22407;42.820;23.374;2023-10-19T06:48:20;30.38;;;15.48;;
31872;SDS011;22407;42.820;23.374;2023-10-19T06:50:46;29.03;;;15.67;;
31872;SDS011;22407;42.820;23.374;2023-10-19T06:53:11;30.73;;;15.17;;
31872;SDS011;22407;42.820;23.374;2023-10-19T06:55:37;26.70;;;12.57;;
31872;SDS011;22407;42.820;23.374;2023-10-19T06:58:03;38.58;;;15.77;;
31872;SDS011;22407;42.820;23.374;2023-10-19T07:00:30;74.15;;;28.77;;
31872;SDS011;22407;42.820;23.374;2023-10-19T07:02:57;40.03;;;17.73;;
31872;SDS011;22407;42.820;23.374;2023-10-19T07:05:25;46.97;;;19.67;;
31872;SDS011;22407;42.820;23.374;2023-10-19T07:07:55;57.17;;;22.83;;
31872;SDS011;22407;42.820;23.374;2023-10-19T07:10:22;40.35;;;17.63;;
31872;SDS011;22407;42.820;23.374;2023-10-19T07:12:52;31.27;;;14.25;;
31872;SDS011;22407;42.820;23.374;2023-10-19T07:15:19;30.25;;;13.73;;
31872;SDS011;22407;42.820;23.374;2023-10-19T07:17:48;31.50;;;14.07;;
31872;SDS011;22407;42.820;23.374;2023-10-19T07:20:18;24.23;;;11.95;;
31872;SDS011;22407;42.820;23.374;2023-10-19T07:22:53;23.83;;;11.02;;
31872;SDS011;22407;42.820;23.374;2023-10-19T07:25:19;25.15;;;11.68;;
31872;SDS011;22407;42.820;23.374;2023-10-19T07:27:47;21.17;;;10.68;;
31872;SDS011;22407;42.820;23.374;2023-10-19T07:30:13;19.77;;;10.40;;
31872;SDS011;22407;42.820;23.374;2023-10-19T07:32:40;23.48;;;11.48;;
31872;SDS011;22407;42.820;23.374;2023-10-19T07:35:06;19.55;;;10.80;;
31872;SDS011;22407;42.820;23.374;2023-10-19T07:37:32;19.95;;;10.60;;
31872;SDS011;22407;42.820;23.374;2023-10-19T07:39:58;21.40;;;10.90;;
31872;SDS011;22407;42.820;23.374;2023-10-19T07:42:23;22.73;;;10.47;;
31872;SDS011;22407;42.820;23.374;2023-10-19T07:44:49;20.30;;;10.38;;
31872;SDS011;22407;42.820;23.374;2023-10-19T07:47:15;23.13;;;11.60;;
31872;SDS011;22407;42.820;23.374;2023-10-19T07:49:40;23.10;;;10.88;;
31872;SDS011;22407;42.820;23.374;2023-10-19T07:52:06;22.37;;;11.20;;
31872;SDS011;22407;42.820;23.374;2023-10-19T07:54:33;24.35;;;11.98;;
31872;SDS011;22407;42.820;23.374;2023-10-19T07:57:00;24.95;;;11.88;;
31872;SDS011;22407;42.820;23.374;2023-10-19T07:59:30;22.65;;;11.68;;
31872;SDS011;22407;42.820;23.374;2023-10-19T08:01:59;23.73;;;11.70;;
31872;SDS011;22407;42.820;23.374;2023-10-19T08:04:29;22.98;;;11.90;;
31872;SDS011;22407;42.820;23.374;2023-10-19T08:06:56;23.90;;;12.35;;
31872;SDS011;22407;42.820;23.374;2023-10-19T08:09:22;23.40;;;11.32;;
31872;SDS011;22407;42.820;23.374;2023-10-19T08:11:48;22.93;;;11.73;;
31872;SDS011;22407;42.820;23.374;2023-10-19T08:14:14;23.10;;;12.30;;
31872;SDS011;22407;42.820;23.374;2023-10-19T08:16:40;22.85;;;12.25;;
31872;SDS011;22407;42.820;23.374;2023-10-19T08:19:07;24.50;;;10.63;;
31872;SDS011;22407;42.820;23.374;2023-10-19T08:21:33;24.27;;;10.77;;
31872;SDS011;22407;42.820;23.374;2023-10-19T08:23:59;21.88;;;10.13;;
31872;SDS011;22407;42.820;23.374;2023-10-19T08:26:29;19.95;;;10.32;;
31872;SDS011;22407;42.820;23.374;2023-10-19T08:28:56;21.25;;;11.35;;
31872;SDS011;22407;42.820;23.374;2023-10-19T08:31:24;23.23;;;11.03;;
31872;SDS011;22407;42.820;23.374;2023-10-19T08:33:49;20.77;;;9.73;;
31872;SDS011;22407;42.820;23.374;2023-10-19T08:36:19;19.80;;;9.73;;
31872;SDS011;22407;42.820;23.374;2023-10-19T08:38:47;23.63;;;10.93;;
31872;SDS011;22407;42.820;23.374;2023-10-19T08:41:14;19.10;;;9.50;;
31872;SDS011;22407;42.820;23.374;2023-10-19T08:43:40;20.35;;;10.20;;
31872;SDS011;22407;42.820;23.374;2023-10-19T08:46:06;19.40;;;10.13;;
31872;SDS011;22407;42.820;23.374;2023-10-19T08:48:35;17.93;;;9.33;;
31872;SDS011;22407;42.820;23.374;2023-10-19T08:51:03;17.73;;;9.57;;
31872;SDS011;22407;42.820;23.374;2023-10-19T08:53:38;15.73;;;8.43;;
31872;SDS011;22407;42.820;23.374;2023-10-19T08:56:08;16.37;;;8.60;;
31872;SDS011;22407;42.820;23.374;2023-10-19T08:58:34;17.77;;;8.18;;
31872;SDS011;22407;42.820;23.374;2023-10-19T09:00:59;15.77;;;8.40;;
31872;SDS011;22407;42.820;23.374;2023-10-19T09:03:31;15.25;;;8.00;;
31872;SDS011;22407;42.820;23.374;2023-10-19T09:06:03;14.55;;;7.63;;
31872;SDS011;22407;42.820;23.374;2023-10-19T09:08:30;14.53;;;7.77;;
31872;SDS011;22407;42.820;23.374;2023-10-19T09:11:08;14.48;;;7.40;;
31872;SDS011;22407;42.820;23.374;2023-10-19T09:13:44;14.52;;;7.53;;
31872;SDS011;22407;42.820;23.374;2023-10-19T09:16:16;12.43;;;6.50;;
31872;SDS011;22407;42.820;23.374;2023-10-19T09:18:44;12.52;;;6.82;;
31872;SDS011;22407;42.820;23.374;2023-10-19T09:21:15;10.60;;;5.53;;
31872;SDS011;22407;42.820;23.374;2023-10-19T09:23:51;12.98;;;5.80;;
31872;SDS011;22407;42.820;23.374;2023-10-19T09:26:21;10.45;;;5.55;;
31872;SDS011;22407;42.820;23.374;2023-10-19T09:28:47;12.93;;;6.40;;
31872;SDS011;22407;42.820;23.374;2023-10-19T09:31:14;15.65;;;6.65;;
31872;SDS011;22407;42.820;23.374;2023-10-19T09:33:41;14.23;;;6.83;;
31872;SDS011;22407;42.820;23.374;2023-10-19T09:36:09;13.88;;;6.85;;
31872;SDS011;22407;42.820;23.374;2023-10-19T09:38:45;13.27;;;6.93;;
31872;SDS011;22407;42.820;23.374;2023-10-19T09:41:22;10.90;;;6.25;;
31872;SDS011;22407;42.820;23.374;2023-10-19T09:43:53;13.43;;;6.82;;
31872;SDS011;22407;42.820;23.374;2023-10-19T09:46:29;11.83;;;5.97;;
31872;SDS011;22407;42.820;23.374;2023-10-19T09:48:56;11.75;;;6.35;;
31872;SDS011;22407;42.820;23.374;2023-10-19T09:51:23;10.77;;;5.20;;
31872;SDS011;22407;42.820;23.374;2023-10-19T09:54:00;17.55;;;7.32;;
31872;SDS011;22407;42.820;23.374;2023-10-19T09:56:35;11.68;;;6.07;;
31872;SDS011;22407;42.820;23.374;2023-10-19T09:59:10;13.57;;;7.13;;
31872;SDS011;22407;42.820;23.374;2023-10-19T10:02:05;12.38;;;5.82;;
31872;SDS011;22407;42.820;23.374;2023-10-19T10:04:37;12.05;;;5.70;;
31872;SDS011;22407;42.820;23.374;2023-10-19T10:07:05;10.98;;;5.70;;
31872;SDS011;22407;42.820;23.374;2023-10-19T10:09:35;11.45;;;5.68;;
31872;SDS011;22407;42.820;23.374;2023-10-19T10:12:15;10.83;;;5.73;;
31872;SDS011;22407;42.820;23.374;2023-10-19T10:17:41;13.55;;;6.03;;
31872;SDS011;22407;42.820;23.374;2023-10-19T10:22:44;12.07;;;6.10;;
31872;SDS011;22407;42.820;23.374;2023-10-19T10:25:25;12.13;;;6.18;;
31872;SDS011;22407;42.820;23.374;2023-10-19T10:27:53;10.25;;;5.38;;
31872;SDS011;22407;42.820;23.374;2023-10-19T10:30:19;13.23;;;6.57;;
31872;SDS011;22407;42.820;23.374;2023-10-19T10:32:54;13.18;;;6.07;;
31872;SDS011;22407;42.820;23.374;2023-10-19T10:38:02;12.37;;;5.83;;
31872;SDS011;22407;42.820;23.374;2023-10-19T10:40:31;13.95;;;6.53;;
31872;SDS011;22407;42.820;23.374;2023-10-19T10:43:06;11.55;;;6.25;;
31872;SDS011;22407;42.820;23.374;2023-10-19T10:45:32;15.48;;;6.60;;
31872;SDS011;22407;42.820;23.374;2023-10-19T10:47:57;14.27;;;6.73;;
31872;SDS011;22407;42.820;23.374;2023-10-19T10:50:26;11.02;;;5.75;;
31872;SDS011;22407;42.820;23.374;2023-10-19T10:52:53;11.60;;;5.85;;
31872;SDS011;22407;42.820;23.374;2023-10-19T10:55:22;10.73;;;5.80;;
31872;SDS011;22407;42.820;23.374;2023-10-19T10:57:52;11.20;;;5.20;;
31872;SDS011;22407;42.820;23.374;2023-10-19T11:00:19;12.80;;;6.72;;
31872;SDS011;22407;42.820;23.374;2023-10-19T11:02:46;11.32;;;6.20;;
31872;SDS011;22407;42.820;23.374;2023-10-19T11:05:13;13.10;;;6.15;;
31872;SDS011;22407;42.820;23.374;2023-10-19T11:08:25;12.43;;;5.57;;
31872;SDS011;22407;42.820;23.374;2023-10-19T11:10:29;11.70;;;6.07;;
31872;SDS011;22407;42.820;23.374;2023-10-19T11:13:04;13.57;;;5.60;;
31872;SDS011;22407;42.820;23.374;2023-10-19T11:15:32;10.55;;;5.35;;
31872;SDS011;22407;42.820;23.374;2023-10-19T11:17:58;13.57;;;5.78;;
31872;SDS011;22407;42.820;23.374;2023-10-19T11:20:24;11.27;;;5.50;;
31872;SDS011;22407;42.820;23.374;2023-10-19T11:22:52;11.05;;;5.82;;
31872;SDS011;22407;42.820;23.374;2023-10-19T11:25:24;11.18;;;5.32;;
31872;SDS011;22407;42.820;23.374;2023-10-19T11:28:00;10.70;;;5.27;;
31872;SDS011;22407;42.820;23.374;2023-10-19T11:30:30;10.73;;;5.10;;
31872;SDS011;22407;42.820;23.374;2023-10-19T11:32:56;10.55;;;5.55;;
31872;SDS011;22407;42.820;23.374;2023-10-19T11:35:23;12.50;;;4.70;;
31872;SDS011;22407;42.820;23.374;2023-10-19T11:37:50;9.95;;;4.88;;
31872;SDS011;22407;42.820;23.374;2023-10-19T11:40:20;9.57;;;5.03;;
31872;SDS011;22407;42.820;23.374;2023-10-19T11:42:47;10.95;;;5.55;;
31872;SDS011;22407;42.820;23.374;2023-10-19T11:45:13;11.80;;;5.32;;
31872;SDS011;22407;42.820;23.374;2023-10-19T11:47:38;9.93;;;5.00;;
31872;SDS011;22407;42.820;23.374;2023-10-19T11:50:04;9.77;;;4.90;;
31872;SDS011;22407;42.820;23.374;2023-10-19T11:52:31;10.68;;;5.72;;
31872;SDS011;22407;42.820;23.374;2023-10-19T11:54:56;10.07;;;4.97;;
31872;SDS011;22407;42.820;23.374;2023-10-19T11:57:25;10.10;;;5.32;;
31872;SDS011;22407;42.820;23.374;2023-10-19T11:59:51;9.38;;;4.90;;
31872;SDS011;22407;42.820;23.374;2023-10-19T12:02:19;11.00;;;5.20;;
31872;SDS011;22407;42.820;23.374;2023-10-19T12:04:45;9.40;;;4.77;;
31872;SDS011;22407;42.820;23.374;2023-10-19T12:07:11;9.50;;;4.75;;
31872;SDS011;22407;42.820;23.374;2023-10-19T12:09:37;9.88;;;5.00;;
31872;SDS011;22407;42.820;23.374;2023-10-19T12:12:06;8.77;;;4.27;;
31872;SDS011;22407;42.820;23.374;2023-10-19T12:14:31;10.45;;;4.50;;
31872;SDS011;22407;42.820;23.374;2023-10-19T12:16:59;9.68;;;5.03;;
31872;SDS011;22407;42.820;23.374;2023-10-19T12:19:27;9.93;;;4.90;;
31872;SDS011;22407;42.820;23.374;2023-10-19T12:21:55;8.68;;;4.38;;
31872;SDS011;22407;42.820;23.374;2023-10-19T12:24:21;9.68;;;4.68;;
31872;SDS011;22407;42.820;23.374;2023-10-19T12:26:46;10.38;;;5.18;;
31872;SDS011;22407;42.820;23.374;2023-10-19T12:29:12;9.83;;;4.50;;
31872;SDS011;22407;42.820;23.374;2023-10-19T12:31:39;10.15;;;4.60;;
31872;SDS011;22407;42.820;23.374;2023-10-19T12:34:06;10.43;;;4.47;;
31872;SDS011;22407;42.820;23.374;2023-10-19T12:36:32;9.67;;;4.80;;
31872;SDS011;22407;42.820;23.374;2023-10-19T12:39:00;9.13;;;3.88;;
31872;SDS011;22407;42.820;23.374;2023-10-19T12:41:27;9.35;;;4.32;;
31872;SDS011;22407;42.820;23.374;2023-10-19T12:43:53;9.38;;;4.47;;
31872;SDS011;22407;42.820;23.374;2023-10-19T12:46:33;8.43;;;4.35;;
31872;SDS011;22407;42.820;23.374;2023-10-19T12:49:03;8.80;;;4.60;;
31872;SDS011;22407;42.820;23.374;2023-10-19T12:51:33;9.15;;;4.18;;
31872;SDS011;22407;42.820;23.374;2023-10-19T12:54:00;8.50;;;4.57;;
31872;SDS011;22407;42.820;23.374;2023-10-19T12:56:28;10.60;;;4.47;;
31872;SDS011;22407;42.820;23.374;2023-10-19T12:58:54;9.93;;;4.93;;
31872;SDS011;22407;42.820;23.374;2023-10-19T13:01:19;8.40;;;4.03;;
31872;SDS011;22407;42.820;23.374;2023-10-19T13:03:46;8.43;;;4.15;;
31872;SDS011;22407;42.820;23.374;2023-10-19T13:06:15;8.82;;;4.75;;
31872;SDS011;22407;42.820;23.374;2023-10-19T13:08:42;8.48;;;4.03;;
31872;SDS011;22407;42.820;23.374;2023-10-19T13:11:08;9.30;;;4.20;;
31872;SDS011;22407;42.820;23.374;2023-10-19T13:13:35;11.60;;;4.50;;
31872;SDS011;22407;42.820;23.374;2023-10-19T13:16:04;8.40;;;4.07;;
31872;SDS011;22407;42.820;23.374;2023-10-19T13:18:34;8.63;;;4.07;;
31872;SDS011;22407;42.820;23.374;2023-10-19T13:21:01;8.18;;;4.10;;
31872;SDS011;22407;42.820;23.374;2023-10-19T13:23:36;10.57;;;4.93;;
31872;SDS011;22407;42.820;23.374;2023-10-19T13:26:02;15.25;;;9.32;;
31872;SDS011;22407;42.820;23.374;2023-10-19T13:28:42;15.55;;;10.85;;
31872;SDS011;22407;42.820;23.374;2023-10-19T13:31:08;14.90;;;6.73;;
31872;SDS011;22407;42.820;23.374;2023-10-19T13:33:34;15.48;;;6.05;;
31872;SDS011;22407;42.820;23.374;2023-10-19T13:36:00;12.33;;;6.30;;
31872;SDS011;22407;42.820;23.374;2023-10-19T13:38:25;22.27;;;12.95;;
31872;SDS011;22407;42.820;23.374;2023-10-19T13:40:51;15.63;;;6.10;;
31872;SDS011;22407;42.820;23.374;2023-10-19T13:43:16;12.43;;;6.37;;
31872;SDS011;22407;42.820;23.374;2023-10-19T13:45:44;11.15;;;5.78;;
31872;SDS011;22407;42.820;23.374;2023-10-19T13:48:11;11.93;;;5.47;;
31872;SDS011;22407;42.820;23.374;2023-10-19T13:50:47;10.63;;;4.35;;
31872;SDS011;22407;42.820;23.374;2023-10-19T13:53:14;27.45;;;12.52;;
31872;SDS011;22407;42.820;23.374;2023-10-19T13:55:40;15.33;;;7.73;;
31872;SDS011;22407;42.820;23.374;2023-10-19T13:58:07;12.75;;;5.90;;
31872;SDS011;22407;42.820;23.374;2023-10-19T14:00:33;11.50;;;5.00;;
31872;SDS011;22407;42.820;23.374;2023-10-19T14:02:58;10.23;;;4.65;;
31872;SDS011;22407;42.820;23.374;2023-10-19T14:05:26;12.80;;;7.00;;
31872;SDS011;22407;42.820;23.374;2023-10-19T14:07:52;12.80;;;6.45;;
31872;SDS011;22407;42.820;23.374;2023-10-19T14:10:18;12.00;;;6.13;;
31872;SDS011;22407;42.820;23.374;2023-10-19T14:12:47;12.07;;;6.32;;
31872;SDS011;22407;42.820;23.374;2023-10-19T14:17:41;20.15;;;10.38;;
31872;SDS011;22407;42.820;23.374;2023-10-19T14:20:07;11.00;;;5.07;;
31872;SDS011;22407;42.820;23.374;2023-10-19T14:22:40;13.98;;;7.50;;
31872;SDS011;22407;42.820;23.374;2023-10-19T14:25:11;14.95;;;6.22;;
31872;SDS011;22407;42.820;23.374;2023-10-19T14:27:41;15.43;;;8.53;;
31872;SDS011;22407;42.820;23.374;2023-10-19T14:30:08;18.20;;;7.63;;
31872;SDS011;22407;42.820;23.374;2023-10-19T14:32:37;13.00;;;5.82;;
31872;SDS011;22407;42.820;23.374;2023-10-19T14:35:07;9.32;;;4.60;;
31872;SDS011;22407;42.820;23.374;2023-10-19T14:37:39;11.40;;;5.07;;
31872;SDS011;22407;42.820;23.374;2023-10-19T14:40:10;9.50;;;4.80;;
31872;SDS011;22407;42.820;23.374;2023-10-19T14:42:37;9.18;;;4.45;;
31872;SDS011;22407;42.820;23.374;2023-10-19T14:45:07;7.88;;;4.03;;